sensor_id;sensor_type;location;lat;lon;timestamp;temperature;humidity
57030;DHT22;42920;45.306;20.448;2022-12-29T00:01:34;102.60;2227.20
57030;DHT22;42920;45.306;20.448;2022-12-29T00:04:00;102.60;2227.20
57030;DHT22;42920;45.306;20.448;2022-12-29T00:06:26;102.50;2227.20
57030;DHT22;42920;45.306;20.448;2022-12-29T00:08:52;102.50;2227.20
57030;DHT22;42920;45.306;20.448;2022-12-29T00:11:19;102.50;2227.20
57030;DHT22;42920;45.306;20.448;2022-12-29T00:13:45;102.50;2227.20
57030;DHT22;42920;45.306;20.448;2022-12-29T00:16:29;102.60;2227.20
57030;DHT22;42920;45.306;20.448;2022-12-29T00:18:55;102.50;2227.20
57030;DHT22;42920;45.306;20.448;2022-12-29T00:21:21;102.60;2227.20
57030;DHT22;42920;45.306;20.448;2022-12-29T00:24:09;102.60;2227.20
57030;DHT22;42920;45.306;20.448;2022-12-29T00:27:19;102.50;2227.20
57030;DHT22;42920;45.306;20.448;2022-12-29T00:30:04;102.50;2227.20
57030;DHT22;42920;45.306;20.448;2022-12-29T00:32:49;102.50;2227.20
57030;DHT22;42920;45.306;20.448;2022-12-29T00:35:39;102.50;2227.20
57030;DHT22;42920;45.306;20.448;2022-12-29T00:38:09;102.50;2227.20
57030;DHT22;42920;45.306;20.448;2022-12-29T00:40:54;102.50;2227.20
57030;DHT22;42920;45.306;20.448;2022-12-29T00:43:38;102.60;2227.20
57030;DHT22;42920;45.306;20.448;2022-12-29T00:46:23;102.50;2227.20
57030;DHT22;42920;45.306;20.448;2022-12-29T00:48:48;102.60;2227.20
57030;DHT22;42920;45.306;20.448;2022-12-29T00:51:32;102.60;2227.20
57030;DHT22;42920;45.306;20.448;2022-12-29T00:53:58;102.50;2227.20
57030;DHT22;42920;45.306;20.448;2022-12-29T00:56:24;102.50;2227.20
57030;DHT22;42920;45.306;20.448;2022-12-29T00:58:49;102.50;2227.20
57030;DHT22;42920;45.306;20.448;2022-12-29T01:01:15;102.50;2227.20
57030;DHT22;42920;45.306;20.448;2022-12-29T01:03:41;102.50;2227.20
57030;DHT22;42920;45.306;20.448;2022-12-29T01:06:08;102.50;2227.20
57030;DHT22;42920;45.306;20.448;2022-12-29T01:08:35;102.50;2227.20
57030;DHT22;42920;45.306;20.448;2022-12-29T01:11:11;102.60;2227.20
57030;DHT22;42920;45.306;20.448;2022-12-29T01:13:37;102.60;2227.20
57030;DHT22;42920;45.306;20.448;2022-12-29T01:16:04;102.60;2227.20
57030;DHT22;42920;45.306;20.448;2022-12-29T01:18:30;102.60;2227.20
57030;DHT22;42920;45.306;20.448;2022-12-29T01:21:00;102.60;2227.20
57030;DHT22;42920;45.306;20.448;2022-12-29T01:23:26;102.60;2227.20
57030;DHT22;42920;45.306;20.448;2022-12-29T01:25:51;102.60;2227.20
57030;DHT22;42920;45.306;20.448;2022-12-29T01:28:17;102.60;2227.20
57030;DHT22;42920;45.306;20.448;2022-12-29T01:30:42;102.60;2227.20
57030;DHT22;42920;45.306;20.448;2022-12-29T01:33:08;102.60;2227.20
57030;DHT22;42920;45.306;20.448;2022-12-29T01:35:34;102.50;2227.20
57030;DHT22;42920;45.306;20.448;2022-12-29T01:37:59;102.50;2227.20
57030;DHT22;42920;45.306;20.448;2022-12-29T01:40:25;102.50;2227.20
57030;DHT22;42920;45.306;20.448;2022-12-29T01:42:50;102.50;2227.20
57030;DHT22;42920;45.306;20.448;2022-12-29T01:45:16;102.50;2227.20
57030;DHT22;42920;45.306;20.448;2022-12-29T01:47:46;102.50;2227.20
57030;DHT22;42920;45.306;20.448;2022-12-29T01:50:25;102.50;2227.20
57030;DHT22;42920;45.306;20.448;2022-12-29T01:52:57;102.40;2227.20
57030;DHT22;42920;45.306;20.448;2022-12-29T01:55:27;102.40;2227.20
57030;DHT22;42920;45.306;20.448;2022-12-29T01:57:56;102.40;2227.20
57030;DHT22;42920;45.306;20.448;2022-12-29T02:00:23;102.40;2227.20
57030;DHT22;42920;45.306;20.448;2022-12-29T02:02:50;102.40;2227.20
57030;DHT22;42920;45.306;20.448;2022-12-29T02:05:46;102.50;2227.20
57030;DHT22;42920;45.306;20.448;2022-12-29T02:08:13;102.50;2227.20
57030;DHT22;42920;45.306;20.448;2022-12-29T02:10:40;102.40;2227.20
57030;DHT22;42920;45.306;20.448;2022-12-29T02:13:07;102.40;2227.20
57030;DHT22;42920;45.306;20.448;2022-12-29T02:34:32;102.50;2227.20
57030;DHT22;42920;45.306;20.448;2022-12-29T02:37:36;102.50;2227.20
57030;DHT22;42920;45.306;20.448;2022-12-29T02:40:00;102.50;2227.20
57030;DHT22;42920;45.306;20.448;2022-12-29T02:45:54;102.40;2227.20
57030;DHT22;42920;45.306;20.448;2022-12-29T02:51:18;102.50;2227.20
57030;DHT22;42920;45.306;20.448;2022-12-29T02:53:44;102.50;2227.20
57030;DHT22;42920;45.306;20.448;2022-12-29T02:56:29;102.50;2227.20
57030;DHT22;42920;45.306;20.448;2022-12-29T02:58:54;102.50;2227.20
57030;DHT22;42920;45.306;20.448;2022-12-29T03:06:35;102.50;2227.20
57030;DHT22;42920;45.306;20.448;2022-12-29T03:09:26;102.50;2227.20
57030;DHT22;42920;45.306;20.448;2022-12-29T03:12:06;102.50;2227.20
57030;DHT22;42920;45.306;20.448;2022-12-29T03:15:03;102.50;2227.20
57030;DHT22;42920;45.306;20.448;2022-12-29T03:17:56;102.50;2227.20
57030;DHT22;42920;45.306;20.448;2022-12-29T03:20:42;102.50;2227.20
57030;DHT22;42920;45.306;20.448;2022-12-29T03:23:10;102.50;2227.20
57030;DHT22;42920;45.306;20.448;2022-12-29T03:25:42;102.50;2227.20
57030;DHT22;42920;45.306;20.448;2022-12-29T03:28:16;102.50;2227.20
57030;DHT22;42920;45.306;20.448;2022-12-29T03:30:45;102.40;2227.20
57030;DHT22;42920;45.306;20.448;2022-12-29T03:33:15;102.40;2227.20
57030;DHT22;42920;45.306;20.448;2022-12-29T03:35:44;77.70;2227.20
57030;DHT22;42920;45.306;20.448;2022-12-29T03:38:36;77.70;2227.20
57030;DHT22;42920;45.306;20.448;2022-12-29T03:41:07;77.70;2227.20
57030;DHT22;42920;45.306;20.448;2022-12-29T03:43:33;77.70;2227.20
57030;DHT22;42920;45.306;20.448;2022-12-29T03:45:59;77.70;2227.20
57030;DHT22;42920;45.306;20.448;2022-12-29T03:48:25;77.70;2227.20
57030;DHT22;42920;45.306;20.448;2022-12-29T03:50:50;77.70;2227.20
57030;DHT22;42920;45.306;20.448;2022-12-29T03:53:16;77.70;2227.20
57030;DHT22;42920;45.306;20.448;2022-12-29T03:55:42;77.70;2227.20
57030;DHT22;42920;45.306;20.448;2022-12-29T03:58:07;77.70;2227.20
57030;DHT22;42920;45.306;20.448;2022-12-29T04:00:33;102.40;2227.20
57030;DHT22;42920;45.306;20.448;2022-12-29T04:02:58;77.70;2227.20
57030;DHT22;42920;45.306;20.448;2022-12-29T04:05:26;102.50;2227.20
57030;DHT22;42920;45.306;20.448;2022-12-29T04:07:51;102.50;2227.20
57030;DHT22;42920;45.306;20.448;2022-12-29T04:10:17;102.50;2227.20
57030;DHT22;42920;45.306;20.448;2022-12-29T04:12:43;102.50;2227.20
57030;DHT22;42920;45.306;20.448;2022-12-29T04:15:09;102.40;2227.20
57030;DHT22;42920;45.306;20.448;2022-12-29T04:17:35;102.40;2227.20
57030;DHT22;42920;45.306;20.448;2022-12-29T04:20:00;77.70;2227.20
57030;DHT22;42920;45.306;20.448;2022-12-29T04:22:45;102.40;2227.20
57030;DHT22;42920;45.306;20.448;2022-12-29T04:25:10;102.40;2227.20
57030;DHT22;42920;45.306;20.448;2022-12-29T04:27:36;77.70;2227.20
57030;DHT22;42920;45.306;20.448;2022-12-29T04:30:02;77.60;2227.20
57030;DHT22;42920;45.306;20.448;2022-12-29T04:32:27;77.60;2227.20
57030;DHT22;42920;45.306;20.448;2022-12-29T04:34:53;77.70;2227.20
57030;DHT22;42920;45.306;20.448;2022-12-29T04:37:19;77.70;2227.20
57030;DHT22;42920;45.306;20.448;2022-12-29T04:39:44;77.70;2227.20
57030;DHT22;42920;45.306;20.448;2022-12-29T04:42:10;77.70;2227.20
57030;DHT22;42920;45.306;20.448;2022-12-29T04:44:35;102.40;2227.20
57030;DHT22;42920;45.306;20.448;2022-12-29T04:47:01;102.40;2227.20
57030;DHT22;42920;45.306;20.448;2022-12-29T04:49:26;102.40;2227.20
57030;DHT22;42920;45.306;20.448;2022-12-29T04:51:52;102.40;2227.20
57030;DHT22;42920;45.306;20.448;2022-12-29T04:54:18;102.40;2227.20
57030;DHT22;42920;45.306;20.448;2022-12-29T04:56:43;102.40;2227.20
57030;DHT22;42920;45.306;20.448;2022-12-29T04:59:09;102.40;2227.20
57030;DHT22;42920;45.306;20.448;2022-12-29T05:01:36;102.50;2227.20
57030;DHT22;42920;45.306;20.448;2022-12-29T05:04:01;102.50;2227.20
57030;DHT22;42920;45.306;20.448;2022-12-29T05:06:27;102.50;2227.20
57030;DHT22;42920;45.306;20.448;2022-12-29T05:08:53;102.50;2227.20
57030;DHT22;42920;45.306;20.448;2022-12-29T05:11:18;102.50;2227.20
57030;DHT22;42920;45.306;20.448;2022-12-29T05:13:47;102.50;2227.20
57030;DHT22;42920;45.306;20.448;2022-12-29T05:16:13;102.50;2227.20
57030;DHT22;42920;45.306;20.448;2022-12-29T05:18:38;102.40;2227.20
57030;DHT22;42920;45.306;20.448;2022-12-29T05:21:04;102.40;2227.20
57030;DHT22;42920;45.306;20.448;2022-12-29T05:23:29;102.40;2227.20
57030;DHT22;42920;45.306;20.448;2022-12-29T05:25:55;102.40;2227.20
57030;DHT22;42920;45.306;20.448;2022-12-29T05:28:21;102.40;2227.20
57030;DHT22;42920;45.306;20.448;2022-12-29T05:30:50;77.70;2227.20
57030;DHT22;42920;45.306;20.448;2022-12-29T05:33:17;102.40;2227.20
57030;DHT22;42920;45.306;20.448;2022-12-29T05:35:44;102.60;2227.20
57030;DHT22;42920;45.306;20.448;2022-12-29T05:38:09;102.60;2227.20
57030;DHT22;42920;45.306;20.448;2022-12-29T05:40:35;102.50;2227.20
57030;DHT22;42920;45.306;20.448;2022-12-29T05:43:01;102.50;2227.20
57030;DHT22;42920;45.306;20.448;2022-12-29T05:45:26;102.50;2227.20
57030;DHT22;42920;45.306;20.448;2022-12-29T05:47:52;102.50;2227.20
57030;DHT22;42920;45.306;20.448;2022-12-29T05:50:18;102.50;2227.20
57030;DHT22;42920;45.306;20.448;2022-12-29T05:52:44;102.50;2227.20
57030;DHT22;42920;45.306;20.448;2022-12-29T05:55:11;102.40;2227.20
57030;DHT22;42920;45.306;20.448;2022-12-29T05:57:37;102.40;2227.20
57030;DHT22;42920;45.306;20.448;2022-12-29T06:00:04;102.50;2227.20
57030;DHT22;42920;45.306;20.448;2022-12-29T06:02:30;102.50;2227.20
57030;DHT22;42920;45.306;20.448;2022-12-29T06:04:55;102.50;2227.20
57030;DHT22;42920;45.306;20.448;2022-12-29T06:07:21;102.50;2227.20
57030;DHT22;42920;45.306;20.448;2022-12-29T06:09:46;102.40;2227.20
57030;DHT22;42920;45.306;20.448;2022-12-29T06:12:12;102.40;2227.20
57030;DHT22;42920;45.306;20.448;2022-12-29T06:14:38;102.40;2227.20
57030;DHT22;42920;45.306;20.448;2022-12-29T06:17:03;102.50;2227.20
57030;DHT22;42920;45.306;20.448;2022-12-29T06:19:29;102.50;2227.20
57030;DHT22;42920;45.306;20.448;2022-12-29T06:21:55;102.50;2227.20
57030;DHT22;42920;45.306;20.448;2022-12-29T06:24:20;102.50;2227.20
57030;DHT22;42920;45.306;20.448;2022-12-29T06:26:46;102.50;2227.20
57030;DHT22;42920;45.306;20.448;2022-12-29T06:29:12;102.50;2227.20
57030;DHT22;42920;45.306;20.448;2022-12-29T06:31:42;102.50;2227.20
57030;DHT22;42920;45.306;20.448;2022-12-29T06:34:08;102.50;2227.20
57030;DHT22;42920;45.306;20.448;2022-12-29T06:36:34;102.50;2227.20
57030;DHT22;42920;45.306;20.448;2022-12-29T06:39:00;102.50;2227.20
57030;DHT22;42920;45.306;20.448;2022-12-29T06:41:25;102.50;2227.20
57030;DHT22;42920;45.306;20.448;2022-12-29T06:43:51;102.50;2227.20
57030;DHT22;42920;45.306;20.448;2022-12-29T06:46:17;102.60;2227.20
57030;DHT22;42920;45.306;20.448;2022-12-29T06:48:42;102.60;2227.20
57030;DHT22;42920;45.306;20.448;2022-12-29T06:51:08;102.60;2227.20
57030;DHT22;42920;45.306;20.448;2022-12-29T06:53:34;102.60;2227.20
57030;DHT22;42920;45.306;20.448;2022-12-29T06:55:59;102.70;2227.20
57030;DHT22;42920;45.306;20.448;2022-12-29T06:58:25;102.60;2227.20
57030;DHT22;42920;45.306;20.448;2022-12-29T07:00:51;102.70;2227.20
57030;DHT22;42920;45.306;20.448;2022-12-29T07:03:16;102.60;2227.20
57030;DHT22;42920;45.306;20.448;2022-12-29T07:05:42;102.70;2227.20
57030;DHT22;42920;45.306;20.448;2022-12-29T07:08:08;102.60;2227.20
57030;DHT22;42920;45.306;20.448;2022-12-29T07:10:33;102.70;2227.20
57030;DHT22;42920;45.306;20.448;2022-12-29T07:12:59;102.80;2227.20
57030;DHT22;42920;45.306;20.448;2022-12-29T07:15:25;102.80;2227.20
57030;DHT22;42920;45.306;20.448;2022-12-29T07:17:50;102.80;2227.20
57030;DHT22;42920;45.306;20.448;2022-12-29T07:20:17;102.80;2227.20
57030;DHT22;42920;45.306;20.448;2022-12-29T07:22:43;102.90;2227.20
57030;DHT22;42920;45.306;20.448;2022-12-29T07:25:08;102.90;2227.20
57030;DHT22;42920;45.306;20.448;2022-12-29T07:27:34;102.90;2227.20
57030;DHT22;42920;45.306;20.448;2022-12-29T07:30:00;102.90;2227.20
57030;DHT22;42920;45.306;20.448;2022-12-29T07:32:25;102.90;2227.20
57030;DHT22;42920;45.306;20.448;2022-12-29T07:34:51;102.90;2227.20
57030;DHT22;42920;45.306;20.448;2022-12-29T07:37:17;102.90;2227.20
57030;DHT22;42920;45.306;20.448;2022-12-29T07:39:43;103.00;2227.20
57030;DHT22;42920;45.306;20.448;2022-12-29T07:42:08;102.90;2227.20
57030;DHT22;42920;45.306;20.448;2022-12-29T07:44:34;103.00;2227.20
57030;DHT22;42920;45.306;20.448;2022-12-29T07:46:59;103.00;2227.20
57030;DHT22;42920;45.306;20.448;2022-12-29T07:49:25;103.10;2227.20
57030;DHT22;42920;45.306;20.448;2022-12-29T07:51:50;103.20;2227.20
57030;DHT22;42920;45.306;20.448;2022-12-29T07:54:16;103.30;2227.20
57030;DHT22;42920;45.306;20.448;2022-12-29T07:56:45;103.30;2227.20
57030;DHT22;42920;45.306;20.448;2022-12-29T07:59:11;128.00;2252.80
57030;DHT22;42920;45.306;20.448;2022-12-29T08:01:39;128.00;2252.80
57030;DHT22;42920;45.306;20.448;2022-12-29T08:04:05;128.10;2252.80
57030;DHT22;42920;45.306;20.448;2022-12-29T08:06:31;128.20;2252.80
57030;DHT22;42920;45.306;20.448;2022-12-29T08:08:56;128.20;2252.80
57030;DHT22;42920;45.306;20.448;2022-12-29T08:11:22;128.30;2252.80
57030;DHT22;42920;45.306;20.448;2022-12-29T08:13:48;128.30;2252.80
57030;DHT22;42920;45.306;20.448;2022-12-29T08:16:14;128.40;2252.80
57030;DHT22;42920;45.306;20.448;2022-12-29T08:18:39;128.40;2252.80
57030;DHT22;42920;45.306;20.448;2022-12-29T08:21:05;128.70;2252.80
57030;DHT22;42920;45.306;20.448;2022-12-29T08:23:31;128.60;2252.80
57030;DHT22;42920;45.306;20.448;2022-12-29T08:26:02;128.80;2252.80
57030;DHT22;42920;45.306;20.448;2022-12-29T08:28:28;128.80;2252.80
57030;DHT22;42920;45.306;20.448;2022-12-29T08:30:57;128.90;2252.80
57030;DHT22;42920;45.306;20.448;2022-12-29T08:33:23;153.60;2252.80
57030;DHT22;42920;45.306;20.448;2022-12-29T08:35:49;153.60;2252.80
57030;DHT22;42920;45.306;20.448;2022-12-29T08:38:15;153.70;2252.80
57030;DHT22;42920;45.306;20.448;2022-12-29T08:40:40;153.80;2252.80
57030;DHT22;42920;45.306;20.448;2022-12-29T08:43:06;153.90;2252.80
57030;DHT22;42920;45.306;20.448;2022-12-29T08:45:32;153.90;2252.80
57030;DHT22;42920;45.306;20.448;2022-12-29T08:47:58;154.00;2252.80
57030;DHT22;42920;45.306;20.448;2022-12-29T08:50:23;154.10;2252.80
57030;DHT22;42920;45.306;20.448;2022-12-29T08:52:49;154.20;2252.80
57030;DHT22;42920;45.306;20.448;2022-12-29T08:55:15;154.30;2252.80
57030;DHT22;42920;45.306;20.448;2022-12-29T08:57:40;154.40;2252.80
57030;DHT22;42920;45.306;20.448;2022-12-29T09:00:06;154.50;2252.80
57030;DHT22;42920;45.306;20.448;2022-12-29T09:02:32;179.20;2252.80
57030;DHT22;42920;45.306;20.448;2022-12-29T09:04:58;179.40;2252.80
57030;DHT22;42920;45.306;20.448;2022-12-29T09:07:24;179.50;2252.80
57030;DHT22;42920;45.306;20.448;2022-12-29T09:09:50;179.60;2252.80
57030;DHT22;42920;45.306;20.448;2022-12-29T09:12:17;179.70;2252.80
57030;DHT22;42920;45.306;20.448;2022-12-29T09:14:43;179.70;2252.80
57030;DHT22;42920;45.306;20.448;2022-12-29T09:17:10;179.80;2252.80
57030;DHT22;42920;45.306;20.448;2022-12-29T09:19:54;179.80;2252.80
57030;DHT22;42920;45.306;20.448;2022-12-29T09:22:20;180.00;2252.80
57030;DHT22;42920;45.306;20.448;2022-12-29T09:24:46;180.00;2252.80
57030;DHT22;42920;45.306;20.448;2022-12-29T09:27:11;180.10;2252.80
57030;DHT22;42920;45.306;20.448;2022-12-29T09:29:37;204.80;2252.80
57030;DHT22;42920;45.306;20.448;2022-12-29T09:32:03;205.00;2252.80
57030;DHT22;42920;45.306;20.448;2022-12-29T09:34:29;205.20;2252.80
57030;DHT22;42920;45.306;20.448;2022-12-29T09:36:55;205.40;2252.80
57030;DHT22;42920;45.306;20.448;2022-12-29T09:39:22;205.50;2252.80
57030;DHT22;42920;45.306;20.448;2022-12-29T09:45:04;230.40;2252.80
57030;DHT22;42920;45.306;20.448;2022-12-29T09:47:34;230.60;2252.80
57030;DHT22;42920;45.306;20.448;2022-12-29T09:52:39;230.90;2252.80
57030;DHT22;42920;45.306;20.448;2022-12-29T09:55:15;230.90;2252.80
57030;DHT22;42920;45.306;20.448;2022-12-29T10:02:42;256.00;2252.80
57030;DHT22;42920;45.306;20.448;2022-12-29T10:10:59;231.10;2252.80
57030;DHT22;42920;45.306;20.448;2022-12-29T10:13:28;231.10;2252.80
57030;DHT22;42920;45.306;20.448;2022-12-29T10:16:02;231.20;2252.80
57030;DHT22;42920;45.306;20.448;2022-12-29T10:18:46;231.20;2252.80
57030;DHT22;42920;45.306;20.448;2022-12-29T10:24:26;256.70;2252.80
57030;DHT22;42920;45.306;20.448;2022-12-29T10:26:55;281.70;2278.40
57030;DHT22;42920;45.306;20.448;2022-12-29T10:29:28;281.90;2278.40
57030;DHT22;42920;45.306;20.448;2022-12-29T10:32:04;282.00;2278.40
57030;DHT22;42920;45.306;20.448;2022-12-29T10:34:38;282.00;2278.40
57030;DHT22;42920;45.306;20.448;2022-12-29T10:37:43;282.10;2278.40
57030;DHT22;42920;45.306;20.448;2022-12-29T10:39:59;282.20;2278.40
57030;DHT22;42920;45.306;20.448;2022-12-29T10:42:34;282.30;2278.40
57030;DHT22;42920;45.306;20.448;2022-12-29T10:45:03;282.30;2278.40
57030;DHT22;42920;45.306;20.448;2022-12-29T10:47:34;282.20;2278.40
57030;DHT22;42920;45.306;20.448;2022-12-29T10:50:02;282.20;2278.40
57030;DHT22;42920;45.306;20.448;2022-12-29T10:52:28;282.30;2278.40
57030;DHT22;42920;45.306;20.448;2022-12-29T10:57:37;307.20;2304.00
57030;DHT22;42920;45.306;20.448;2022-12-29T11:00:17;307.30;2304.00
57030;DHT22;42920;45.306;20.448;2022-12-29T11:06:24;282.40;2278.40
57030;DHT22;42920;45.306;20.448;2022-12-29T11:08:57;282.40;2278.40
57030;DHT22;42920;45.306;20.448;2022-12-29T11:11:35;282.30;2278.40
57030;DHT22;42920;45.306;20.448;2022-12-29T11:14:18;282.40;2278.40
57030;DHT22;42920;45.306;20.448;2022-12-29T11:16:44;307.50;2304.00
57030;DHT22;42920;45.306;20.448;2022-12-29T11:19:23;307.90;2304.00
57030;DHT22;42920;45.306;20.448;2022-12-29T11:21:50;332.80;2329.60
57030;DHT22;42920;45.306;20.448;2022-12-29T11:24:22;332.80;2329.60
57030;DHT22;42920;45.306;20.448;2022-12-29T11:26:56;332.90;2329.60
57030;DHT22;42920;45.306;20.448;2022-12-29T11:29:41;332.80;2329.60
57030;DHT22;42920;45.306;20.448;2022-12-29T11:32:25;333.10;2329.60
57030;DHT22;42920;45.306;20.448;2022-12-29T11:34:52;333.20;2329.60
57030;DHT22;42920;45.306;20.448;2022-12-29T11:37:26;333.10;2329.60
57030;DHT22;42920;45.306;20.448;2022-12-29T11:42:41;333.00;2329.60
57030;DHT22;42920;45.306;20.448;2022-12-29T11:45:18;333.10;2329.60
57030;DHT22;42920;45.306;20.448;2022-12-29T11:47:47;332.90;2329.60
57030;DHT22;42920;45.306;20.448;2022-12-29T11:50:22;308.10;2304.00
57030;DHT22;42920;45.306;20.448;2022-12-29T11:52:56;307.90;2304.00
57030;DHT22;42920;45.306;20.448;2022-12-29T11:55:25;307.90;2304.00
57030;DHT22;42920;45.306;20.448;2022-12-29T11:57:53;307.80;2304.00
57030;DHT22;42920;45.306;20.448;2022-12-29T12:00:24;307.70;2304.00
57030;DHT22;42920;45.306;20.448;2022-12-29T12:05:49;307.80;2304.00
57030;DHT22;42920;45.306;20.448;2022-12-29T12:11:03;307.60;2304.00
57030;DHT22;42920;45.306;20.448;2022-12-29T12:13:34;307.60;2304.00
57030;DHT22;42920;45.306;20.448;2022-12-29T12:16:06;307.50;2304.00
57030;DHT22;42920;45.306;20.448;2022-12-29T12:21:21;307.30;2304.00
57030;DHT22;42920;45.306;20.448;2022-12-29T12:23:58;307.30;2304.00
57030;DHT22;42920;45.306;20.448;2022-12-29T12:29:11;307.30;2304.00
57030;DHT22;42920;45.306;20.448;2022-12-29T12:32:05;307.30;2304.00
57030;DHT22;42920;45.306;20.448;2022-12-29T12:34:38;307.30;2304.00
57030;DHT22;42920;45.306;20.448;2022-12-29T12:54:23;307.30;2304.00
57030;DHT22;42920;45.306;20.448;2022-12-29T12:57:17;307.30;2304.00
57030;DHT22;42920;45.306;20.448;2022-12-29T13:02:43;307.30;2304.00
57030;DHT22;42920;45.306;20.448;2022-12-29T13:17:21;307.40;2304.00
57030;DHT22;42920;45.306;20.448;2022-12-29T13:20:02;307.40;2304.00
57030;DHT22;42920;45.306;20.448;2022-12-29T13:22:44;307.40;2304.00
57030;DHT22;42920;45.306;20.448;2022-12-29T13:28:03;307.40;2304.00
57030;DHT22;42920;45.306;20.448;2022-12-29T13:31:00;307.50;2304.00
57030;DHT22;42920;45.306;20.448;2022-12-29T13:38:43;307.40;2304.00
57030;DHT22;42920;45.306;20.448;2022-12-29T13:41:23;307.40;2304.00
57030;DHT22;42920;45.306;20.448;2022-12-29T13:43:51;307.50;2304.00
57030;DHT22;42920;45.306;20.448;2022-12-29T13:46:29;307.40;2304.00
57030;DHT22;42920;45.306;20.448;2022-12-29T13:49:05;307.40;2304.00
57030;DHT22;42920;45.306;20.448;2022-12-29T13:51:33;307.50;2304.00
57030;DHT22;42920;45.306;20.448;2022-12-29T13:56:47;307.40;2304.00
57030;DHT22;42920;45.306;20.448;2022-12-29T14:02:19;307.40;2304.00
57030;DHT22;42920;45.306;20.448;2022-12-29T14:05:01;307.40;2304.00
57030;DHT22;42920;45.306;20.448;2022-12-29T14:07:28;307.40;2304.00
57030;DHT22;42920;45.306;20.448;2022-12-29T14:09:56;307.40;2304.00
57030;DHT22;42920;45.306;20.448;2022-12-29T14:12:38;307.30;2304.00
57030;DHT22;42920;45.306;20.448;2022-12-29T14:17:35;307.30;2304.00
57030;DHT22;42920;45.306;20.448;2022-12-29T14:20:02;307.30;2304.00
57030;DHT22;42920;45.306;20.448;2022-12-29T14:22:29;307.30;2304.00
57030;DHT22;42920;45.306;20.448;2022-12-29T14:24:55;307.30;2304.00
57030;DHT22;42920;45.306;20.448;2022-12-29T14:29:48;307.30;2304.00
57030;DHT22;42920;45.306;20.448;2022-12-29T14:34:47;307.20;2304.00
57030;DHT22;42920;45.306;20.448;2022-12-29T14:37:33;307.20;2304.00
57030;DHT22;42920;45.306;20.448;2022-12-29T14:40:14;307.20;2304.00
57030;DHT22;42920;45.306;20.448;2022-12-29T14:42:43;307.20;2304.00
57030;DHT22;42920;45.306;20.448;2022-12-29T14:45:29;282.50;2278.40
57030;DHT22;42920;45.306;20.448;2022-12-29T14:47:55;282.50;2278.40
57030;DHT22;42920;45.306;20.448;2022-12-29T14:58:45;307.20;2304.00
57030;DHT22;42920;45.306;20.448;2022-12-29T15:01:39;282.50;2278.40
57030;DHT22;42920;45.306;20.448;2022-12-29T15:04:25;282.50;2278.40
57030;DHT22;42920;45.306;20.448;2022-12-29T15:06:53;282.40;2278.40
57030;DHT22;42920;45.306;20.448;2022-12-29T15:09:30;282.40;2278.40
57030;DHT22;42920;45.306;20.448;2022-12-29T15:12:01;282.40;2278.40
57030;DHT22;42920;45.306;20.448;2022-12-29T15:14:38;282.40;2278.40
57030;DHT22;42920;45.306;20.448;2022-12-29T15:17:29;282.30;2278.40
57030;DHT22;42920;45.306;20.448;2022-12-29T15:19:57;282.40;2278.40
57030;DHT22;42920;45.306;20.448;2022-12-29T15:22:23;282.30;2278.40
57030;DHT22;42920;45.306;20.448;2022-12-29T15:24:54;282.30;2278.40
57030;DHT22;42920;45.306;20.448;2022-12-29T15:27:23;282.30;2278.40
57030;DHT22;42920;45.306;20.448;2022-12-29T15:29:57;282.30;2278.40
57030;DHT22;42920;45.306;20.448;2022-12-29T15:32:25;282.30;2278.40
57030;DHT22;42920;45.306;20.448;2022-12-29T15:34:57;282.30;2278.40
57030;DHT22;42920;45.306;20.448;2022-12-29T15:37:28;282.30;2278.40
57030;DHT22;42920;45.306;20.448;2022-12-29T15:39:58;282.30;2278.40
57030;DHT22;42920;45.306;20.448;2022-12-29T15:45:11;282.30;2278.40
57030;DHT22;42920;45.306;20.448;2022-12-29T15:47:38;282.30;2278.40
57030;DHT22;42920;45.306;20.448;2022-12-29T15:50:36;282.30;2278.40
57030;DHT22;42920;45.306;20.448;2022-12-29T15:53:11;282.30;2278.40
57030;DHT22;42920;45.306;20.448;2022-12-29T15:55:39;282.20;2278.40
57030;DHT22;42920;45.306;20.448;2022-12-29T15:58:21;282.20;2278.40
57030;DHT22;42920;45.306;20.448;2022-12-29T16:00:54;282.20;2278.40
57030;DHT22;42920;45.306;20.448;2022-12-29T16:03:23;282.20;2278.40
57030;DHT22;42920;45.306;20.448;2022-12-29T16:06:07;282.20;2278.40
57030;DHT22;42920;45.306;20.448;2022-12-29T16:08:39;282.10;2278.40
57030;DHT22;42920;45.306;20.448;2022-12-29T16:13:58;282.00;2278.40
57030;DHT22;42920;45.306;20.448;2022-12-29T16:16:31;282.00;2278.40
57030;DHT22;42920;45.306;20.448;2022-12-29T16:21:51;282.10;2278.40
57030;DHT22;42920;45.306;20.448;2022-12-29T16:24:23;282.10;2278.40
57030;DHT22;42920;45.306;20.448;2022-12-29T16:27:02;282.00;2278.40
57030;DHT22;42920;45.306;20.448;2022-12-29T16:29:32;282.00;2278.40
57030;DHT22;42920;45.306;20.448;2022-12-29T16:31:59;282.00;2278.40
57030;DHT22;42920;45.306;20.448;2022-12-29T16:37:32;282.10;2278.40
57030;DHT22;42920;45.306;20.448;2022-12-29T16:40:31;282.00;2278.40
57030;DHT22;42920;45.306;20.448;2022-12-29T16:42:59;282.10;2278.40
57030;DHT22;42920;45.306;20.448;2022-12-29T16:50:42;282.00;2278.40
57030;DHT22;42920;45.306;20.448;2022-12-29T16:53:29;282.10;2278.40
57030;DHT22;42920;45.306;20.448;2022-12-29T16:56:05;282.10;2278.40
57030;DHT22;42920;45.306;20.448;2022-12-29T16:58:33;282.10;2278.40
57030;DHT22;42920;45.306;20.448;2022-12-29T17:01:03;282.00;2278.40
57030;DHT22;42920;45.306;20.448;2022-12-29T17:03:34;282.10;2278.40
57030;DHT22;42920;45.306;20.448;2022-12-29T17:06:01;282.10;2278.40
57030;DHT22;42920;45.306;20.448;2022-12-29T17:08:27;281.80;2278.40
57030;DHT22;42920;45.306;20.448;2022-12-29T17:10:55;282.00;2278.40
57030;DHT22;42920;45.306;20.448;2022-12-29T17:13:40;282.00;2278.40
57030;DHT22;42920;45.306;20.448;2022-12-29T17:16:07;282.00;2278.40
57030;DHT22;42920;45.306;20.448;2022-12-29T17:18:34;282.00;2278.40
57030;DHT22;42920;45.306;20.448;2022-12-29T17:21:01;282.00;2278.40
57030;DHT22;42920;45.306;20.448;2022-12-29T17:23:27;282.00;2278.40